createdAt,value
2019-05-18T00:00:36.111Z,53.18
2019-05-18T00:03:04.170Z,53.16
2019-05-18T00:05:32.462Z,53.11
2019-05-18T00:08:00.451Z,53.08
2019-05-18T00:10:28.527Z,53.04
2019-05-18T00:12:56.588Z,53.00
2019-05-18T00:15:24.703Z,53.06
2019-05-18T00:17:52.758Z,53.03
2019-05-18T00:20:20.774Z,52.94
2019-05-18T00:22:48.733Z,52.98
2019-05-18T00:25:16.798Z,52.98
2019-05-18T00:27:44.884Z,52.97
2019-05-18T00:30:12.914Z,52.94
2019-05-18T00:32:40.886Z,52.94
2019-05-18T00:35:08.888Z,52.95
2019-05-18T00:37:36.878Z,52.94
2019-05-18T00:40:05.703Z,52.92
2019-05-18T00:42:33.734Z,52.97
2019-05-18T00:45:01.867Z,52.94
2019-05-18T00:47:40.904Z,52.92
2019-05-18T00:49:59.551Z,52.90
2019-05-18T00:52:27.595Z,52.90
2019-05-18T00:54:55.681Z,52.90
2019-05-18T00:57:23.789Z,52.88
2019-05-18T00:59:51.784Z,52.95
2019-05-18T01:02:19.831Z,52.97
2019-05-18T01:04:47.908Z,52.85
2019-05-18T01:07:15.887Z,52.98
2019-05-18T01:09:43.963Z,52.86
2019-05-18T01:12:11.935Z,52.94
2019-05-18T01:14:39.942Z,52.88
2019-05-18T01:17:07.987Z,52.91
2019-05-18T01:19:35.995Z,52.89
2019-05-18T01:22:04.049Z,52.91
2019-05-18T01:24:32.038Z,52.98
2019-05-18T01:27:00.015Z,52.99
2019-05-18T01:29:28.036Z,53.03
2019-05-18T01:31:56.128Z,52.98
2019-05-18T01:34:24.088Z,52.94
2019-05-18T01:36:52.083Z,52.86
2019-05-18T01:39:20.054Z,52.87
2019-05-18T01:41:48.052Z,52.80
2019-05-18T01:44:16.048Z,52.73
2019-05-18T01:46:44.133Z,52.87
2019-05-18T01:49:12.222Z,52.83
2019-05-18T01:51:40.239Z,52.88
2019-05-18T01:54:08.292Z,52.85
2019-05-18T01:56:36.387Z,52.86
2019-05-18T01:59:04.444Z,52.65
2019-05-18T02:01:32.506Z,52.80
2019-05-18T02:04:00.488Z,52.80
2019-05-18T02:06:28.483Z,52.72
2019-05-18T02:08:56.464Z,52.83
2019-05-18T02:11:24.539Z,52.70
2019-05-18T02:13:52.582Z,52.75
2019-05-18T02:16:20.579Z,52.63
2019-05-18T02:18:48.551Z,52.64
2019-05-18T02:21:16.559Z,52.61
2019-05-18T02:23:44.523Z,52.60
2019-05-18T02:26:12.520Z,52.57
2019-05-18T02:28:40.570Z,52.48
2019-05-18T02:31:08.568Z,52.55
2019-05-18T02:33:36.624Z,52.55
2019-05-18T02:36:04.696Z,52.54
2019-05-18T02:38:32.735Z,52.47
2019-05-18T02:41:00.730Z,52.51
2019-05-18T02:43:28.803Z,52.42
2019-05-18T02:45:56.815Z,52.50
2019-05-18T02:48:24.786Z,52.48
2019-05-18T02:50:52.787Z,52.42
2019-05-18T02:53:20.771Z,52.44
2019-05-18T02:55:48.759Z,52.43
2019-05-18T02:58:16.754Z,52.40
2019-05-18T03:00:44.897Z,52.33
2019-05-18T03:03:13.018Z,52.41
2019-05-18T03:05:41.112Z,52.44
2019-05-18T03:08:12.239Z,52.34
2019-05-18T03:10:40.312Z,52.35
2019-05-18T03:13:08.281Z,52.38
2019-05-18T03:15:36.354Z,52.31
2019-05-18T03:18:04.529Z,52.34
2019-05-18T03:20:32.675Z,52.17
2019-05-18T03:23:00.651Z,52.13
2019-05-18T03:25:28.630Z,52.29
2019-05-18T03:27:56.635Z,52.32
2019-05-18T03:30:24.599Z,52.32
2019-05-18T03:32:52.600Z,52.18
2019-05-18T03:35:20.580Z,52.46
2019-05-18T03:37:48.655Z,52.27
2019-05-18T03:40:16.694Z,52.21
2019-05-18T03:42:44.687Z,52.32
2019-05-18T03:45:12.682Z,52.25
2019-05-18T03:47:40.765Z,52.28
2019-05-18T03:50:08.740Z,52.26
2019-05-18T03:52:36.822Z,52.16
2019-05-18T03:55:04.876Z,52.12
2019-05-18T03:57:32.963Z,52.20
2019-05-18T04:00:01.285Z,52.20
2019-05-18T04:02:29.270Z,52.17
2019-05-18T04:04:57.277Z,52.18
2019-05-18T04:07:25.325Z,52.18
2019-05-18T04:09:53.291Z,52.29
2019-05-18T04:12:21.365Z,52.20
2019-05-18T04:14:49.416Z,52.22
2019-05-18T04:17:17.481Z,52.23
2019-05-18T04:19:47.464Z,52.15
2019-05-18T04:22:15.100Z,52.18
2019-05-18T04:24:43.144Z,52.17
2019-05-18T04:27:11.217Z,52.11
2019-05-18T04:29:39.264Z,52.13
2019-05-18T04:32:07.252Z,52.14
2019-05-18T04:34:35.223Z,52.13
2019-05-18T04:37:03.219Z,52.22
2019-05-18T04:39:31.179Z,52.24
2019-05-18T04:41:59.374Z,52.24
2019-05-18T04:44:27.532Z,52.29
2019-05-18T04:46:55.750Z,52.22
2019-05-18T04:49:23.728Z,52.18
2019-05-18T04:51:51.746Z,52.16
2019-05-18T04:54:19.725Z,52.09
2019-05-18T04:56:47.699Z,52.08
2019-05-18T04:59:15.691Z,52.05
2019-05-18T05:01:43.759Z,52.04
2019-05-18T05:04:11.837Z,52.00
2019-05-18T05:06:39.955Z,51.87
2019-05-18T05:09:08.332Z,51.91
2019-05-18T05:11:36.317Z,51.87
2019-05-18T05:14:04.416Z,51.82
2019-05-18T05:16:32.407Z,51.86
2019-05-18T05:19:00.572Z,51.84
2019-05-18T05:21:28.541Z,51.82
2019-05-18T05:23:56.605Z,51.90
2019-05-18T05:26:24.647Z,51.87
2019-05-18T05:28:52.735Z,51.58
2019-05-18T05:31:20.702Z,51.44
2019-05-18T05:33:48.706Z,51.33
2019-05-18T05:36:16.674Z,51.24
2019-05-18T05:38:44.675Z,51.24
2019-05-18T05:41:16.464Z,51.24
2019-05-18T05:43:42.314Z,51.17
2019-05-18T05:46:10.308Z,51.13
2019-05-18T05:48:38.298Z,51.10
2019-05-18T05:51:06.355Z,51.02
2019-05-18T05:53:34.426Z,50.93
2019-05-18T05:56:02.531Z,50.87
2019-05-18T05:58:30.590Z,50.81
2019-05-18T06:00:58.648Z,50.76
2019-05-18T06:03:26.635Z,50.71
2019-05-18T06:05:54.611Z,50.64
2019-05-18T06:08:22.687Z,50.60
2019-05-18T06:10:50.742Z,50.55
2019-05-18T06:13:18.731Z,50.50
2019-05-18T06:15:46.770Z,50.43
2019-05-18T06:18:14.726Z,50.45
2019-05-18T06:20:50.913Z,50.34
2019-05-18T06:23:12.339Z,50.29
2019-05-18T06:25:40.310Z,50.14
2019-05-18T06:28:08.312Z,50.04
2019-05-18T06:30:36.355Z,49.96
2019-05-18T06:33:04.456Z,49.91
2019-05-18T06:35:32.441Z,49.88
2019-05-18T06:38:00.422Z,49.84
2019-05-18T06:40:28.490Z,49.83
2019-05-18T06:42:56.487Z,49.82
2019-05-18T06:45:24.484Z,49.82
2019-05-18T06:47:52.454Z,49.82
2019-05-18T06:50:23.366Z,49.83
2019-05-18T06:52:51.342Z,49.83
2019-05-18T06:55:19.493Z,49.84
2019-05-18T06:57:47.453Z,49.84
2019-05-18T07:00:15.847Z,49.85
2019-05-18T07:02:43.825Z,49.86
2019-05-18T07:05:11.894Z,49.89
2019-05-18T07:07:39.934Z,49.91
2019-05-18T07:10:08.427Z,49.88
2019-05-18T07:12:36.398Z,49.89
2019-05-18T07:15:05.209Z,49.87
2019-05-18T07:17:34.708Z,49.85
2019-05-18T07:20:02.923Z,49.85
2019-05-18T07:22:31.136Z,49.83
2019-05-18T07:24:59.095Z,49.85
2019-05-18T07:27:27.066Z,49.84
2019-05-18T07:29:55.059Z,49.81
2019-05-18T07:32:23.030Z,49.79
2019-05-18T07:34:51.032Z,49.78
2019-05-18T07:37:18.991Z,49.74
2019-05-18T07:39:46.995Z,49.69
2019-05-18T07:42:15.046Z,49.66
2019-05-18T07:44:43.147Z,49.61
2019-05-18T07:47:11.118Z,49.60
2019-05-18T07:49:39.191Z,49.65
2019-05-18T07:52:07.312Z,49.62
2019-05-18T07:54:35.309Z,49.55
2019-05-18T07:57:03.351Z,49.51
2019-05-18T07:59:31.446Z,49.47
2019-05-18T08:01:59.499Z,49.44
2019-05-18T08:04:27.511Z,49.43
2019-05-18T08:06:55.555Z,49.40
2019-05-18T08:09:23.756Z,49.35
2019-05-18T08:11:51.815Z,49.31
2019-05-18T08:14:19.888Z,49.31
2019-05-18T08:16:47.945Z,49.32
2019-05-18T08:19:15.996Z,49.27
2019-05-18T08:21:52.858Z,49.25
2019-05-18T08:24:13.902Z,49.21
2019-05-18T08:26:41.994Z,49.19
2019-05-18T08:29:10.039Z,49.15
2019-05-18T08:31:38.136Z,49.14
2019-05-18T08:34:06.190Z,49.11
2019-05-18T08:36:34.268Z,49.10
2019-05-18T08:39:02.491Z,49.07
2019-05-18T08:41:30.775Z,49.08
2019-05-18T08:43:58.979Z,49.05
2019-05-18T08:46:27.118Z,49.14
2019-05-18T08:48:55.127Z,49.18
2019-05-18T08:51:23.281Z,49.26
2019-05-18T08:53:51.380Z,49.21
2019-05-18T08:56:19.568Z,49.22
2019-05-18T08:58:47.669Z,49.25
2019-05-18T09:01:15.676Z,49.18
2019-05-18T09:03:43.726Z,49.21
2019-05-18T09:06:11.870Z,49.18
2019-05-18T09:08:39.851Z,49.18
2019-05-18T09:11:07.966Z,49.17
2019-05-18T09:13:36.055Z,49.13
2019-05-18T09:16:04.134Z,49.09
2019-05-18T09:18:32.183Z,49.16
2019-05-18T09:21:00.346Z,49.08
2019-05-18T09:23:28.397Z,49.17
2019-05-18T09:25:56.479Z,49.11
2019-05-18T09:28:24.663Z,49.08
2019-05-18T09:30:53.430Z,49.23
2019-05-18T09:33:21.480Z,49.07
2019-05-18T09:35:49.552Z,49.04
2019-05-18T09:38:17.598Z,49.18
2019-05-18T09:40:45.651Z,49.13
2019-05-18T09:43:13.707Z,49.13
2019-05-18T09:45:41.884Z,49.04
2019-05-18T09:48:09.965Z,49.01
2019-05-18T09:50:38.012Z,49.06
2019-05-18T09:53:06.051Z,49.06
2019-05-18T09:55:34.103Z,49.11
2019-05-18T09:58:02.283Z,49.13
2019-05-18T10:00:38.105Z,49.15
2019-05-18T10:03:00.031Z,49.14
2019-05-18T10:05:28.040Z,49.16
2019-05-18T10:07:56.223Z,49.19
2019-05-18T10:10:24.395Z,49.20
2019-05-18T10:12:52.470Z,49.23
2019-05-18T10:15:20.450Z,49.34
2019-05-18T10:17:48.453Z,49.34
2019-05-18T10:20:16.573Z,49.40
2019-05-18T10:22:55.638Z,49.54
2019-05-18T10:25:14.669Z,49.54
2019-05-18T10:27:42.667Z,49.56
2019-05-18T10:30:10.861Z,49.53
2019-05-18T10:32:38.951Z,49.54
2019-05-18T10:35:06.968Z,49.54
2019-05-18T10:37:35.151Z,49.54
2019-05-18T10:40:03.284Z,49.54
2019-05-18T10:42:31.369Z,49.68
2019-05-18T10:44:59.378Z,49.64
2019-05-18T10:47:27.480Z,49.53
2019-05-18T10:49:55.455Z,49.57
2019-05-18T10:52:23.515Z,49.56
2019-05-18T10:54:51.496Z,49.53
2019-05-18T10:57:19.494Z,49.55
2019-05-18T10:59:47.630Z,49.52
2019-05-18T11:02:15.634Z,49.48
2019-05-18T11:04:43.602Z,49.52
2019-05-18T11:07:11.599Z,49.49
2019-05-18T11:09:39.661Z,49.45
2019-05-18T11:12:07.743Z,49.43
2019-05-18T11:14:35.799Z,49.43
2019-05-18T11:17:03.883Z,49.43
2019-05-18T11:19:31.862Z,49.44
2019-05-18T11:21:59.942Z,49.46
2019-05-18T11:24:28.001Z,49.46
2019-05-18T11:26:55.999Z,49.53
2019-05-18T11:29:24.446Z,49.52
2019-05-18T11:32:06.892Z,49.51
2019-05-18T11:34:22.755Z,49.53
2019-05-18T11:36:50.799Z,49.47
2019-05-18T11:39:18.915Z,49.44
2019-05-18T11:41:46.968Z,49.42
2019-05-18T11:44:15.172Z,49.41
2019-05-18T11:46:43.156Z,49.38
2019-05-18T11:49:11.302Z,49.40
2019-05-18T11:51:39.365Z,49.44
2019-05-18T11:54:07.496Z,49.52
2019-05-18T11:56:35.464Z,49.56
2019-05-18T11:59:03.523Z,49.57
2019-05-18T12:01:31.644Z,49.59
2019-05-18T12:03:59.730Z,49.61
2019-05-18T12:06:27.890Z,49.61
2019-05-18T12:08:58.623Z,49.67
2019-05-18T12:11:25.888Z,49.61
2019-05-18T12:13:54.063Z,49.61
2019-05-18T12:16:22.269Z,49.53
2019-05-18T12:18:50.388Z,49.75
2019-05-18T12:21:18.510Z,49.63
2019-05-18T12:23:46.587Z,49.65
2019-05-18T12:26:14.650Z,49.56
2019-05-18T12:28:42.659Z,49.57
2019-05-18T12:31:11.074Z,49.57
2019-05-18T12:33:39.174Z,49.55
2019-05-18T12:36:07.235Z,49.52
2019-05-18T12:38:35.243Z,49.53
2019-05-18T12:41:03.368Z,49.54
2019-05-18T12:43:31.551Z,49.49
2019-05-18T12:45:59.618Z,49.52
2019-05-18T12:48:27.831Z,49.54
2019-05-18T12:50:55.807Z,49.50
2019-05-18T12:53:23.882Z,49.48
2019-05-18T12:55:52.001Z,49.45
2019-05-18T12:58:20.185Z,49.39
2019-05-18T13:00:48.155Z,49.44
2019-05-18T13:03:16.227Z,49.37
2019-05-18T13:05:44.275Z,49.33
2019-05-18T13:08:12.424Z,49.31
2019-05-18T13:10:40.564Z,49.30
2019-05-18T13:13:08.718Z,49.33
2019-05-18T13:15:36.707Z,49.26
2019-05-18T13:18:04.867Z,49.29
2019-05-18T13:20:32.834Z,49.25
2019-05-18T13:23:00.924Z,49.23
2019-05-18T13:25:28.957Z,49.17
2019-05-18T13:27:56.986Z,49.21
2019-05-18T13:30:25.041Z,49.17
2019-05-18T13:32:53.410Z,49.12
2019-05-18T13:35:21.538Z,49.07
2019-05-18T13:37:49.533Z,49.04
2019-05-18T13:40:17.651Z,48.99
2019-05-18T13:42:45.642Z,48.98
2019-05-18T13:45:14.241Z,48.99
2019-05-18T13:47:42.305Z,48.94
2019-05-18T13:50:10.376Z,48.88
2019-05-18T13:52:38.361Z,48.95
2019-05-18T13:55:06.457Z,48.99
2019-05-18T13:57:35.127Z,48.98
2019-05-18T14:00:03.240Z,48.87
2019-05-18T14:02:31.295Z,48.82
2019-05-18T14:04:59.299Z,48.84
2019-05-18T14:07:27.299Z,48.80
2019-05-18T14:09:55.291Z,48.78
2019-05-18T14:12:23.259Z,48.69
2019-05-18T14:14:51.261Z,48.74
2019-05-18T14:17:19.246Z,48.71
2019-05-18T14:19:47.315Z,48.68
2019-05-18T14:22:15.378Z,48.63
2019-05-18T14:24:43.466Z,48.60
2019-05-18T14:27:11.536Z,48.46
2019-05-18T14:29:39.535Z,48.45
2019-05-18T14:32:10.839Z,48.38
2019-05-18T14:34:37.241Z,48.36
2019-05-18T14:37:05.328Z,48.43
2019-05-18T14:39:33.380Z,48.48
2019-05-18T14:42:01.351Z,48.53
2019-05-18T14:44:29.379Z,48.53
2019-05-18T14:46:57.511Z,48.56
2019-05-18T14:49:25.522Z,48.59
2019-05-18T14:51:53.488Z,48.74
2019-05-18T14:54:25.299Z,48.84
2019-05-18T14:56:51.134Z,48.84
2019-05-18T14:59:19.191Z,48.82
2019-05-18T15:01:47.162Z,48.78
2019-05-18T15:04:15.162Z,48.71
2019-05-18T15:06:43.222Z,48.71
2019-05-18T15:09:11.238Z,48.64
2019-05-18T15:11:39.304Z,48.61
2019-05-18T15:14:07.382Z,48.52
2019-05-18T15:16:35.345Z,48.46
2019-05-18T15:19:03.349Z,48.39
2019-05-18T15:21:31.323Z,48.21
2019-05-18T15:23:59.343Z,48.14
2019-05-18T15:26:27.471Z,48.01
2019-05-18T15:28:55.579Z,47.93
2019-05-18T15:31:23.953Z,47.82
2019-05-18T15:33:52.056Z,47.71
2019-05-18T15:36:20.056Z,47.55
2019-05-18T15:38:48.096Z,47.42
2019-05-18T15:41:16.277Z,47.34
2019-05-18T15:43:44.338Z,47.27
2019-05-18T15:46:12.418Z,47.18
2019-05-18T15:48:40.691Z,46.94
2019-05-18T15:51:08.767Z,46.84
2019-05-18T15:53:36.839Z,46.70
2019-05-18T15:56:06.429Z,46.59
2019-05-18T15:58:34.619Z,46.44
2019-05-18T16:01:02.701Z,46.34
2019-05-18T16:03:30.854Z,46.24
2019-05-18T16:05:58.879Z,46.15
2019-05-18T16:08:26.863Z,46.19
2019-05-18T16:10:57.214Z,46.08
2019-05-18T16:13:24.650Z,46.02
2019-05-18T16:15:52.735Z,45.99
2019-05-18T16:18:20.735Z,45.96
2019-05-18T16:20:48.784Z,45.84
2019-05-18T16:23:16.834Z,45.79
2019-05-18T16:25:45.179Z,45.77
2019-05-18T16:28:13.307Z,45.71
2019-05-18T16:30:41.396Z,45.63
2019-05-18T16:33:09.475Z,45.56
2019-05-18T16:35:37.547Z,45.52
2019-05-18T16:38:05.662Z,45.42
2019-05-18T16:40:33.663Z,45.43
2019-05-18T16:43:01.708Z,45.38
2019-05-18T16:45:29.735Z,45.34
2019-05-18T16:47:57.715Z,45.20
2019-05-18T16:50:25.779Z,45.18
2019-05-18T16:52:53.771Z,45.21
2019-05-18T16:55:21.782Z,45.17
2019-05-18T16:57:49.762Z,45.13
2019-05-18T17:00:17.839Z,45.09
2019-05-18T17:02:45.875Z,45.09
2019-05-18T17:05:13.971Z,45.07
2019-05-18T17:07:42.143Z,45.05
2019-05-18T17:10:10.228Z,45.00
2019-05-18T17:12:38.273Z,45.05
2019-05-18T17:15:06.457Z,45.00
2019-05-18T17:17:35.433Z,45.01
2019-05-18T17:22:50.818Z,44.89
2019-05-18T17:25:18.832Z,44.81
2019-05-18T17:27:46.795Z,44.76
2019-05-18T17:30:15.158Z,44.79
2019-05-18T17:32:43.230Z,44.80
2019-05-18T17:35:11.285Z,44.79
2019-05-18T17:37:39.381Z,44.77
2019-05-18T17:40:07.364Z,44.85
2019-05-18T17:42:35.432Z,44.90
2019-05-18T17:45:03.420Z,44.99
2019-05-18T17:47:31.503Z,45.11
2019-05-18T17:49:59.637Z,45.22
2019-05-18T17:52:27.727Z,45.35
2019-05-18T17:54:57.444Z,45.46
2019-05-18T17:57:25.592Z,45.56
2019-05-18T17:59:53.648Z,45.70
2019-05-18T18:02:21.661Z,45.80
2019-05-18T18:04:49.625Z,45.94
2019-05-18T18:07:17.683Z,46.05
2019-05-18T18:09:45.753Z,46.16
2019-05-18T18:12:13.923Z,46.21
2019-05-18T18:14:42.051Z,46.40
2019-05-18T18:17:10.127Z,46.52
2019-05-18T18:19:38.098Z,46.64
2019-05-18T18:22:06.168Z,46.74
2019-05-18T18:24:34.357Z,46.87
2019-05-18T18:27:02.355Z,47.01
2019-05-18T18:29:30.349Z,47.13
2019-05-18T18:31:58.651Z,47.23
2019-05-18T18:34:26.779Z,47.34
2019-05-18T18:36:54.966Z,47.45
2019-05-18T18:39:22.927Z,47.56
2019-05-18T18:41:50.919Z,47.68
2019-05-18T18:44:18.917Z,47.80
2019-05-18T18:46:46.999Z,47.87
2019-05-18T18:49:15.043Z,48.01
2019-05-18T18:51:43.102Z,48.08
2019-05-18T18:54:12.791Z,48.13
2019-05-18T18:56:40.819Z,48.22
2019-05-18T18:59:08.807Z,48.31
2019-05-18T19:01:36.808Z,48.39
2019-05-18T19:04:04.927Z,48.48
2019-05-18T19:06:33.157Z,48.55
2019-05-18T19:09:01.267Z,48.65
2019-05-18T19:11:29.273Z,48.73
2019-05-18T19:13:57.340Z,48.82
2019-05-18T19:16:25.360Z,48.85
2019-05-18T19:18:53.475Z,48.89
2019-05-18T19:21:21.561Z,48.93
2019-05-18T19:23:49.526Z,48.95
2019-05-18T19:26:17.525Z,49.02
2019-05-18T19:28:45.531Z,49.07
2019-05-18T19:31:13.575Z,49.13
2019-05-18T19:33:41.591Z,49.15
2019-05-18T19:36:09.647Z,49.19
2019-05-18T19:38:37.799Z,49.21
2019-05-18T19:41:05.923Z,49.29
2019-05-18T19:43:34.040Z,49.30
2019-05-18T19:46:01.983Z,49.32
2019-05-18T19:48:29.988Z,49.38
2019-05-18T19:50:58.128Z,49.42
2019-05-18T19:53:26.302Z,49.45
2019-05-18T19:55:54.275Z,49.48
2019-05-18T19:58:22.272Z,49.51
2019-05-18T20:00:50.274Z,49.57
2019-05-18T20:05:51.546Z,49.64
2019-05-18T20:08:19.642Z,49.69
2019-05-18T20:10:47.755Z,49.74
2019-05-18T20:13:15.750Z,49.75
2019-05-18T20:15:43.826Z,49.79
2019-05-18T20:18:11.914Z,49.85
2019-05-18T20:20:39.972Z,49.91
2019-05-18T20:23:08.629Z,49.89
2019-05-18T20:25:36.856Z,49.93
2019-05-18T20:28:04.923Z,49.95
2019-05-18T20:30:32.997Z,49.95
2019-05-18T20:33:20.114Z,49.97
2019-05-18T20:35:48.068Z,49.99
2019-05-18T20:38:16.067Z,50.02
2019-05-18T20:40:44.047Z,50.06
2019-05-18T20:43:12.042Z,50.06
2019-05-18T20:45:40.111Z,50.08
2019-05-18T20:48:08.189Z,50.09
2019-05-18T20:50:36.231Z,50.11
2019-05-18T20:53:04.232Z,50.10
2019-05-18T20:55:32.391Z,50.13
2019-05-18T20:58:00.464Z,50.17
2019-05-18T21:00:28.468Z,50.17
2019-05-18T21:02:56.561Z,50.17
2019-05-18T21:05:24.533Z,50.18
2019-05-18T21:07:52.539Z,50.20
2019-05-18T21:10:21.479Z,50.21
2019-05-18T21:12:49.475Z,50.25
2019-05-18T21:15:17.451Z,50.26
2019-05-18T21:17:45.461Z,50.24
2019-05-18T21:20:13.515Z,50.26
2019-05-18T21:22:41.497Z,50.29
2019-05-18T21:25:09.494Z,50.29
2019-05-18T21:27:37.561Z,50.34
2019-05-18T21:30:05.994Z,50.36
2019-05-18T21:32:34.137Z,50.38
2019-05-18T21:35:02.332Z,50.38
2019-05-18T21:37:30.503Z,50.39
2019-05-18T21:39:58.576Z,50.41
2019-05-18T21:42:26.570Z,50.43
2019-05-18T21:44:54.606Z,50.44
2019-05-18T21:47:22.658Z,50.46
2019-05-18T21:49:50.654Z,50.48
2019-05-18T21:52:18.702Z,50.48
2019-05-18T21:54:46.702Z,50.49
2019-05-18T21:57:14.670Z,50.51
2019-05-18T21:59:42.843Z,50.49
2019-05-18T22:02:11.216Z,50.51
2019-05-18T22:04:39.394Z,50.52
2019-05-18T22:07:07.559Z,50.52
2019-05-18T22:09:35.614Z,50.55
2019-05-18T22:12:03.655Z,50.58
2019-05-18T22:14:31.731Z,50.56
2019-05-18T22:16:59.848Z,50.56
2019-05-18T22:19:28.059Z,50.56
2019-05-18T22:21:56.119Z,50.58
2019-05-18T22:24:24.203Z,50.60
2019-05-18T22:26:52.171Z,50.58
2019-05-18T22:29:20.264Z,50.60
2019-05-18T22:31:48.391Z,50.59
2019-05-18T22:34:16.394Z,50.64
2019-05-18T22:36:44.372Z,50.64
2019-05-18T22:39:12.366Z,50.62
2019-05-18T22:41:40.410Z,50.62
2019-05-18T22:44:08.506Z,50.62
2019-05-18T22:46:36.476Z,50.62
2019-05-18T22:49:04.599Z,50.62
2019-05-18T22:51:32.651Z,50.60
2019-05-18T22:54:01.034Z,50.56
2019-05-18T22:56:29.140Z,50.58
2019-05-18T22:58:57.265Z,50.58
2019-05-18T23:01:25.303Z,50.60
2019-05-18T23:03:53.359Z,50.64
2019-05-18T23:06:21.475Z,50.60
2019-05-18T23:08:49.542Z,50.60
2019-05-18T23:11:17.556Z,50.60
2019-05-18T23:13:45.532Z,50.60
2019-05-18T23:16:13.594Z,50.63
2019-05-18T23:18:55.843Z,50.62
2019-05-18T23:21:11.356Z,50.61
2019-05-18T23:23:39.480Z,50.61
2019-05-18T23:26:11.374Z,50.58
2019-05-18T23:28:37.267Z,50.61
2019-05-18T23:31:05.335Z,50.59
2019-05-18T23:33:33.378Z,50.57
2019-05-18T23:36:01.385Z,50.56
2019-05-18T23:38:29.527Z,50.56
2019-05-18T23:40:57.620Z,50.54
2019-05-18T23:43:25.674Z,50.53
2019-05-18T23:45:53.851Z,50.52
2019-05-18T23:48:22.006Z,50.51
2019-05-18T23:50:50.006Z,50.53
2019-05-18T23:53:18.059Z,50.48
2019-05-18T23:55:46.104Z,50.49
2019-05-18T23:58:14.191Z,50.44
